Time;durP1;ratioP1;P1;durP2;ratioP2;P2;SDS_P1;SDS_P2;PMS_P1;PMS_P2;Temp;Humidity;BMP_temperature;BMP_pressure;BME280_temperature;BME280_humidity;BME280_pressure;Samples;Min_cycle;Max_cycle;Signal;HPM_P1;HPM_P2
2022/06/23 00:01:23;;;;;;;10.48;5.85;;;;;;;;;;5080127;28;20044;-80
2022/06/23 00:03:54;;;;;;;9.40;5.78;;;;;;;;;;5084985;28;20502;-80
2022/06/23 00:06:36;;;;;;;9.02;5.70;;;;;;;;;;5072380;28;20048;-80
2022/06/23 00:09:20;;;;;;;11.18;6.15;;;;;;;;;;5076357;28;20046;-80
2022/06/23 00:11:49;;;;;;;9.68;6.13;;;;;;;;;;5083928;28;20093;-80
2022/06/23 00:14:16;;;;;;;10.18;6.80;;;;;;;;;;5072618;28;20051;-80
2022/06/23 00:16:44;;;;;;;10.13;5.90;;;;;;;;;;5060975;28;20038;-80
2022/06/23 00:19:14;;;;;;;9.68;5.68;;;;;;;;;;5080653;28;20044;-80
2022/06/23 00:21:43;;;;;;;8.90;6.00;;;;;;;;;;5054253;28;20049;-80
2022/06/23 00:24:14;;;;;;;9.93;5.95;;;;;;;;;;5081147;28;20118;-81
2022/06/23 00:26:40;;;;;;;9.25;6.18;;;;;;;;;;5077763;28;20514;-80
2022/06/23 00:29:11;;;;;;;11.32;6.18;;;;;;;;;;5072619;28;20106;-80
2022/06/23 00:31:38;;;;;;;10.32;5.70;;;;;;;;;;5083468;28;20089;-80
2022/06/23 00:34:14;;;;;;;10.25;6.20;;;;;;;;;;5073765;28;20075;-81
2022/06/23 00:36:43;;;;;;;10.48;6.38;;;;;;;;;;5075205;28;20041;-80
2022/06/23 00:39:32;;;;;;;12.18;6.30;;;;;;;;;;5083145;28;20044;-81
2022/06/23 00:41:58;;;;;;;11.05;6.63;;;;;;;;;;5070621;28;20514;-81
2022/06/23 00:44:30;;;;;;;11.43;6.57;;;;;;;;;;5066965;28;20040;-81
2022/06/23 00:46:59;;;;;;;10.07;6.70;;;;;;;;;;5082653;28;20667;-81
2022/06/23 00:49:27;;;;;;;12.57;7.72;;;;;;;;;;5070501;28;20040;-81
2022/06/23 00:51:55;;;;;;;12.23;7.20;;;;;;;;;;5062457;28;20083;-81
2022/06/23 00:54:24;;;;;;;11.45;6.63;;;;;;;;;;5078815;28;20051;-80
2022/06/23 00:57:14;;;;;;;10.18;6.70;;;;;;;;;;5070833;28;20072;-81
2022/06/23 00:59:49;;;;;;;12.30;7.18;;;;;;;;;;5073673;28;20036;-80
2022/06/23 01:02:18;;;;;;;10.63;7.03;;;;;;;;;;5057986;28;20123;-80
2022/06/23 01:05:03;;;;;;;10.35;6.50;;;;;;;;;;5066569;28;20537;-81
2022/06/23 01:07:32;;;;;;;11.27;7.07;;;;;;;;;;5073025;28;20037;-80
2022/06/23 01:10:05;;;;;;;10.52;7.13;;;;;;;;;;5076163;28;20055;-81
2022/06/23 01:12:54;;;;;;;10.60;6.95;;;;;;;;;;5065759;28;20495;-81
2022/06/23 01:15:47;;;;;;;10.75;7.18;;;;;;;;;;5060372;28;20040;-80
2022/06/23 01:18:19;;;;;;;11.10;7.13;;;;;;;;;;5082025;28;20147;-81
2022/06/23 01:21:06;;;;;;;11.93;7.03;;;;;;;;;;5053536;28;20048;-80
2022/06/23 01:23:41;;;;;;;11.85;7.63;;;;;;;;;;5077309;28;20102;-81
2022/06/23 01:26:23;;;;;;;10.63;7.18;;;;;;;;;;5080778;28;20036;-81
2022/06/23 01:28:50;;;;;;;11.85;7.30;;;;;;;;;;5086442;28;20052;-81
2022/06/23 01:31:20;;;;;;;11.38;7.20;;;;;;;;;;5061652;28;20045;-81
2022/06/23 01:33:47;;;;;;;11.23;6.97;;;;;;;;;;5079110;28;20046;-81
2022/06/23 01:36:16;;;;;;;13.50;7.97;;;;;;;;;;5055984;28;20041;-80
2022/06/23 01:39:04;;;;;;;12.75;8.52;;;;;;;;;;5085949;28;20506;-81
2022/06/23 01:41:37;;;;;;;12.35;7.80;;;;;;;;;;5081591;28;20502;-80
2022/06/23 01:44:36;;;;;;;13.68;8.23;;;;;;;;;;5073569;28;20040;-80
2022/06/23 01:47:12;;;;;;;12.00;7.78;;;;;;;;;;5046316;28;20105;-80
2022/06/23 01:49:44;;;;;;;12.80;8.30;;;;;;;;;;5059715;28;20125;-80
2022/06/23 01:52:12;;;;;;;11.13;7.78;;;;;;;;;;5087483;28;20093;-80
2022/06/23 01:54:39;;;;;;;12.80;7.90;;;;;;;;;;5076110;28;20404;-80
2022/06/23 01:57:20;;;;;;;14.48;8.63;;;;;;;;;;5079519;28;20198;-80
2022/06/23 01:59:52;;;;;;;12.68;7.90;;;;;;;;;;5069256;28;20036;-80
2022/06/23 02:02:18;;;;;;;11.65;8.23;;;;;;;;;;5089835;28;20367;-80
2022/06/23 02:05:01;;;;;;;15.27;8.75;;;;;;;;;;5081055;28;20086;-80
2022/06/23 02:07:42;;;;;;;14.88;9.15;;;;;;;;;;5069643;28;20040;-81
2022/06/23 02:10:08;;;;;;;15.65;9.80;;;;;;;;;;5053386;28;20083;-80
2022/06/23 02:12:38;;;;;;;14.00;9.50;;;;;;;;;;5077570;28;20549;-80
2022/06/23 02:15:11;;;;;;;13.15;8.45;;;;;;;;;;5076787;28;20060;-80
2022/06/23 02:17:43;;;;;;;12.68;8.27;;;;;;;;;;5085620;28;20433;-80
2022/06/23 02:20:29;;;;;;;13.55;8.70;;;;;;;;;;5075102;28;20067;-80
2022/06/23 02:22:55;;;;;;;;;;;;;;;;;;5077370;28;20102;-80
2022/06/23 02:25:23;;;;;;;14.18;9.30;;;;;;;;;;5085104;28;19915;-80
2022/06/23 02:27:53;;;;;;;13.60;8.88;;;;;;;;;;5088922;28;20055;-81
2022/06/23 02:30:38;;;;;;;14.50;8.80;;;;;;;;;;5080906;28;20527;-81
2022/06/23 02:33:18;;;;;;;15.25;9.45;;;;;;;;;;5070511;28;20028;-81
2022/06/23 02:35:47;;;;;;;14.80;9.00;;;;;;;;;;5069817;28;20040;-80
2022/06/23 02:38:23;;;;;;;14.05;8.93;;;;;;;;;;5077787;28;20055;-80
2022/06/23 02:40:52;;;;;;;13.80;9.15;;;;;;;;;;5075278;28;20333;-81
2022/06/23 02:43:37;;;;;;;13.45;8.60;;;;;;;;;;5084872;28;20051;-81
2022/06/23 02:46:03;;;;;;;;;;;;;;;;;;5060800;28;20047;-81
2022/06/23 02:48:38;;;;;;;15.18;9.15;;;;;;;;;;5059518;28;20003;-81
2022/06/23 02:51:10;;;;;;;16.58;10.02;;;;;;;;;;5067968;28;20093;-81
2022/06/23 02:53:45;;;;;;;15.07;9.60;;;;;;;;;;5074357;28;20368;-81
2022/06/23 02:56:18;;;;;;;15.40;9.23;;;;;;;;;;5077456;28;20071;-81
2022/06/23 02:58:50;;;;;;;13.90;9.27;;;;;;;;;;5068637;28;20090;-82
2022/06/23 03:01:22;;;;;;;14.73;9.20;;;;;;;;;;5089570;28;20436;-81
2022/06/23 03:03:58;;;;;;;14.45;9.43;;;;;;;;;;5079442;28;20097;-81
2022/06/23 03:06:34;;;;;;;16.90;10.82;;;;;;;;;;5082574;28;20512;-81
2022/06/23 03:09:08;;;;;;;17.17;11.65;;;;;;;;;;5071967;28;20044;-80
2022/06/23 03:11:52;;;;;;;20.83;12.18;;;;;;;;;;5063179;28;20119;-82
2022/06/23 03:14:37;;;;;;;15.23;9.80;;;;;;;;;;5082713;28;20047;-83
2022/06/23 03:17:03;;;;;;;;;;;;;;;;;;5073110;28;20036;-82
2022/06/23 03:19:32;;;;;;;18.92;11.43;;;;;;;;;;5063459;28;19917;-81
2022/06/23 03:22:08;;;;;;;17.25;11.25;;;;;;;;;;5081730;28;20126;-81
2022/06/23 03:25:04;;;;;;;17.65;11.27;;;;;;;;;;5071746;28;20388;-81
2022/06/23 03:27:30;;;;;;;;;;;;;;;;;;5053359;28;20128;-81
2022/06/23 03:30:01;;;;;;;17.38;11.10;;;;;;;;;;5081472;28;19916;-81
2022/06/23 03:32:27;;;;;;;18.45;11.20;;;;;;;;;;5055000;28;20044;-81
2022/06/23 03:35:06;;;;;;;18.02;11.70;;;;;;;;;;5082185;28;20040;-82
2022/06/23 03:38:10;;;;;;;19.00;12.13;;;;;;;;;;5079866;28;20036;-82
2022/06/23 03:43:32;;;;;;;20.52;12.73;;;;;;;;;;4970737;28;20061;-81
2022/06/23 03:46:01;;;;;;;21.38;12.98;;;;;;;;;;5048516;28;20052;-82
2022/06/23 03:48:27;;;;;;;22.13;13.63;;;;;;;;;;5083695;28;20044;-81
2022/06/23 03:50:56;;;;;;;21.17;12.93;;;;;;;;;;5075298;28;20047;-81
2022/06/23 03:53:24;;;;;;;21.08;12.98;;;;;;;;;;5075459;28;20533;-81
2022/06/23 03:55:54;;;;;;;21.95;13.43;;;;;;;;;;5083909;28;20675;-81
2022/06/23 03:58:30;;;;;;;25.13;14.43;;;;;;;;;;5082903;28;20439;-81
2022/06/23 04:01:03;;;;;;;24.20;14.07;;;;;;;;;;5077297;28;20036;-81
2022/06/23 04:03:32;;;;;;;21.83;13.52;;;;;;;;;;5073220;28;20464;-81
2022/06/23 04:06:10;;;;;;;21.63;12.48;;;;;;;;;;5083707;28;20149;-82
2022/06/23 04:08:43;;;;;;;19.95;12.77;;;;;;;;;;5075257;28;20132;-81
2022/06/23 04:13:57;;;;;;;24.33;14.95;;;;;;;;;;5083286;28;20045;-81
2022/06/23 04:16:25;;;;;;;24.27;14.73;;;;;;;;;;5074333;28;20121;-81
2022/06/23 04:18:52;;;;;;;25.35;14.95;;;;;;;;;;5076405;28;20041;-81
2022/06/23 04:21:24;;;;;;;24.25;14.73;;;;;;;;;;5082814;28;20083;-81
2022/06/23 04:23:52;;;;;;;20.58;12.75;;;;;;;;;;5067490;28;20036;-81
2022/06/23 04:26:18;;;;;;;22.98;13.85;;;;;;;;;;5066992;28;20090;-81
2022/06/23 04:28:44;;;;;;;27.00;14.52;;;;;;;;;;5078652;28;20048;-80
2022/06/23 04:31:16;;;;;;;24.08;14.57;;;;;;;;;;5071601;28;20036;-81
2022/06/23 04:33:43;;;;;;;24.75;15.77;;;;;;;;;;5051090;28;20051;-80
2022/06/23 04:36:23;;;;;;;24.98;15.73;;;;;;;;;;5074962;28;20079;-81
2022/06/23 04:38:55;;;;;;;27.95;16.23;;;;;;;;;;5086936;28;20040;-80
2022/06/23 04:41:21;;;;;;;29.63;17.23;;;;;;;;;;5070819;28;20067;-81
2022/06/23 04:43:53;;;;;;;27.90;17.52;;;;;;;;;;5081628;28;20446;-81
2022/06/23 04:46:27;;;;;;;31.55;17.98;;;;;;;;;;5073091;28;20106;-81
2022/06/23 04:49:09;;;;;;;30.52;18.25;;;;;;;;;;5090936;28;20048;-81
2022/06/23 04:51:40;;;;;;;24.45;15.30;;;;;;;;;;5069302;28;20039;-81
2022/06/23 04:54:09;;;;;;;29.48;18.15;;;;;;;;;;5088604;28;20094;-81
2022/06/23 04:56:38;;;;;;;29.27;17.83;;;;;;;;;;5079219;28;20114;-81
2022/06/23 04:59:43;;;;;;;26.77;16.33;;;;;;;;;;5081710;28;20496;-81
2022/06/23 05:02:24;;;;;;;28.77;18.10;;;;;;;;;;4969095;28;20170;-79
2022/06/23 05:04:56;;;;;;;24.23;14.93;;;;;;;;;;4961491;28;20129;-81
2022/06/23 05:07:32;;;;;;;21.40;14.13;;;;;;;;;;5030800;28;20450;-82
2022/06/23 05:10:01;;;;;;;21.85;14.18;;;;;;;;;;5053338;28;20032;-82
2022/06/23 05:12:30;;;;;;;23.15;15.85;;;;;;;;;;5078892;28;20028;-82
2022/06/23 05:15:02;;;;;;;22.48;13.60;;;;;;;;;;5062487;28;20044;-83
2022/06/23 05:17:31;;;;;;;24.52;15.32;;;;;;;;;;5086360;28;20044;-83
2022/06/23 05:19:59;;;;;;;24.83;15.13;;;;;;;;;;5067135;28;20036;-82
2022/06/23 05:22:25;;;;;;;23.00;15.00;;;;;;;;;;5086625;28;20039;-82
2022/06/23 05:24:53;;;;;;;21.17;13.43;;;;;;;;;;5078493;28;20457;-82
2022/06/23 05:27:31;;;;;;;20.90;12.95;;;;;;;;;;5087221;28;20063;-83
2022/06/23 05:30:07;;;;;;;19.17;12.90;;;;;;;;;;5076920;28;20052;-84
2022/06/23 05:32:43;;;;;;;30.17;16.48;;;;;;;;;;5073273;28;20118;-81
2022/06/23 05:35:15;;;;;;;24.05;15.90;;;;;;;;;;5082262;28;20599;-81
2022/06/23 05:37:48;;;;;;;20.98;14.20;;;;;;;;;;5080297;28;20448;-80
2022/06/23 05:40:27;;;;;;;21.75;14.85;;;;;;;;;;5095923;28;20127;-80
2022/06/23 05:42:58;;;;;;;21.73;14.27;;;;;;;;;;5066414;28;20048;-80
2022/06/23 05:45:26;;;;;;;18.50;12.20;;;;;;;;;;5079745;28;20243;-80
2022/06/23 05:47:52;;;;;;;23.15;15.27;;;;;;;;;;5073198;28;20032;-81
2022/06/23 05:50:36;;;;;;;22.02;15.10;;;;;;;;;;5072832;28;20075;-81
2022/06/23 05:53:07;;;;;;;22.35;15.40;;;;;;;;;;5080172;28;20043;-81
2022/06/23 05:55:36;;;;;;;20.02;13.95;;;;;;;;;;5083973;28;20043;-80
2022/06/23 05:58:11;;;;;;;19.70;13.40;;;;;;;;;;5073173;28;20073;-80
2022/06/23 06:00:56;;;;;;;22.30;15.10;;;;;;;;;;5065597;28;20356;-80
2022/06/23 06:03:22;;;;;;;;;;;;;;;;;;5084106;28;20109;-80
2022/06/23 06:05:49;;;;;;;21.77;14.95;;;;;;;;;;5073526;28;19916;-80
2022/06/23 06:08:25;;;;;;;22.67;15.00;;;;;;;;;;5084297;28;20071;-80
2022/06/23 06:10:52;;;;;;;22.13;15.48;;;;;;;;;;5080707;28;20432;-80
2022/06/23 06:13:20;;;;;;;21.42;15.77;;;;;;;;;;5058685;28;20060;-80
2022/06/23 06:15:49;;;;;;;21.42;15.00;;;;;;;;;;5072181;28;20090;-80
2022/06/23 06:18:31;;;;;;;20.38;15.38;;;;;;;;;;5080232;28;20048;-79
2022/06/23 06:20:59;;;;;;;21.50;15.20;;;;;;;;;;5075859;28;20050;-81
2022/06/23 06:23:25;;;;;;;17.30;13.63;;;;;;;;;;5085160;28;20096;-80
2022/06/23 06:25:51;;;;;;;20.23;15.32;;;;;;;;;;5073718;28;20079;-81
2022/06/23 06:28:22;;;;;;;19.20;15.15;;;;;;;;;;5080740;28;20121;-81
2022/06/23 06:30:51;;;;;;;18.65;14.43;;;;;;;;;;5082118;28;20092;-80
2022/06/23 06:33:33;;;;;;;18.17;14.20;;;;;;;;;;5073163;28;20055;-81
2022/06/23 06:35:59;;;;;;;21.92;14.27;;;;;;;;;;5082202;28;20085;-82
2022/06/23 06:38:28;;;;;;;20.13;14.07;;;;;;;;;;5079982;28;20119;-81
2022/06/23 06:40:56;;;;;;;19.70;14.02;;;;;;;;;;5073728;28;20072;-81
2022/06/23 06:43:25;;;;;;;15.95;12.63;;;;;;;;;;5068361;28;20048;-81
2022/06/23 06:45:52;;;;;;;16.88;12.50;;;;;;;;;;5076166;28;20119;-81
2022/06/23 06:48:30;;;;;;;17.13;12.63;;;;;;;;;;5077307;28;20078;-81
2022/06/23 06:50:59;;;;;;;19.33;14.65;;;;;;;;;;5084968;28;20035;-82
2022/06/23 06:53:33;;;;;;;19.30;14.32;;;;;;;;;;5073507;28;20032;-81
2022/06/23 06:56:17;;;;;;;17.55;13.43;;;;;;;;;;5078924;28;20129;-82
2022/06/23 06:58:56;;;;;;;15.32;11.57;;;;;;;;;;5085059;28;20052;-81
2022/06/23 07:01:24;;;;;;;17.20;13.18;;;;;;;;;;5074138;28;20058;-82
2022/06/23 07:03:51;;;;;;;18.45;13.32;;;;;;;;;;5079438;28;20040;-81
2022/06/23 07:06:23;;;;;;;17.27;13.23;;;;;;;;;;5082147;28;20051;-82
2022/06/23 07:08:54;;;;;;;15.52;12.07;;;;;;;;;;5071952;28;20076;-82
2022/06/23 07:11:38;;;;;;;14.80;12.73;;;;;;;;;;5064931;28;20037;-82
2022/06/23 07:14:05;;;;;;;17.98;12.20;;;;;;;;;;5081803;28;20035;-81
2022/06/23 07:16:31;;;;;;;14.98;11.73;;;;;;;;;;5072072;28;20044;-80
2022/06/23 07:19:01;;;;;;;15.57;11.65;;;;;;;;;;5083772;28;20040;-80
2022/06/23 07:21:45;;;;;;;15.45;11.18;;;;;;;;;;5076978;28;20066;-80
2022/06/23 07:24:14;;;;;;;15.30;11.15;;;;;;;;;;5072786;28;20048;-80
2022/06/23 07:26:44;;;;;;;13.75;9.27;;;;;;;;;;5084343;28;20046;-80
2022/06/23 07:29:13;;;;;;;11.80;8.95;;;;;;;;;;5075507;28;20086;-81
2022/06/23 07:31:46;;;;;;;16.90;11.43;;;;;;;;;;5076003;28;20048;-83
2022/06/23 07:34:15;;;;;;;14.30;11.25;;;;;;;;;;5066939;28;20383;-80
2022/06/23 07:36:46;;;;;;;13.95;9.75;;;;;;;;;;5073334;28;20051;-80
2022/06/23 07:39:15;;;;;;;13.55;9.13;;;;;;;;;;5078411;28;20052;-83
2022/06/23 07:41:43;;;;;;;11.30;8.32;;;;;;;;;;5081703;28;20562;-81
2022/06/23 07:44:15;;;;;;;11.77;8.40;;;;;;;;;;5071267;28;20044;-80
2022/06/23 07:46:42;;;;;;;14.60;9.85;;;;;;;;;;5081612;28;20407;-81
2022/06/23 07:49:08;;;;;;;12.23;8.32;;;;;;;;;;5077965;28;20554;-79
2022/06/23 07:51:35;;;;;;;13.75;9.38;;;;;;;;;;5073919;28;20046;-82
2022/06/23 07:54:02;;;;;;;12.88;10.63;;;;;;;;;;5084082;28;20141;-81
2022/06/23 07:56:31;;;;;;;12.88;9.18;;;;;;;;;;5067714;28;20043;-80
2022/06/23 07:58:59;;;;;;;14.50;9.90;;;;;;;;;;5077840;28;20055;-81
2022/06/23 08:01:31;;;;;;;14.30;10.07;;;;;;;;;;5073556;28;20094;-81
2022/06/23 08:03:57;;;;;;;11.60;8.90;;;;;;;;;;5066834;28;20040;-81
2022/06/23 08:06:24;;;;;;;13.52;8.68;;;;;;;;;;5073814;28;20079;-81
2022/06/23 08:08:57;;;;;;;13.90;9.30;;;;;;;;;;5076765;28;20041;-81
2022/06/23 08:14:26;;;;;;;11.25;8.20;;;;;;;;;;5087032;28;20041;-81
2022/06/23 08:16:52;;;;;;;11.23;8.25;;;;;;;;;;5067434;28;20565;-82
2022/06/23 08:19:18;;;;;;;12.27;9.23;;;;;;;;;;5082967;28;20090;-84
2022/06/23 08:21:53;;;;;;;14.43;9.57;;;;;;;;;;5070663;28;20044;-81
2022/06/23 08:24:23;;;;;;;12.80;9.18;;;;;;;;;;5078876;28;20044;-84
2022/06/23 08:26:53;;;;;;;11.77;9.25;;;;;;;;;;5080214;28;20437;-82
2022/06/23 08:29:21;;;;;;;13.65;9.95;;;;;;;;;;5070536;28;20053;-82
2022/06/23 08:31:48;;;;;;;11.77;8.45;;;;;;;;;;5082091;28;20045;-83
2022/06/23 08:34:15;;;;;;;12.27;8.27;;;;;;;;;;5076320;28;20047;-82
2022/06/23 08:36:46;;;;;;;12.95;8.45;;;;;;;;;;5073924;28;20072;-83
2022/06/23 08:39:35;;;;;;;12.25;9.65;;;;;;;;;;5068446;28;20052;-83
2022/06/23 08:42:13;;;;;;;14.00;9.88;;;;;;;;;;5077719;28;20040;-81
2022/06/23 08:44:39;;;;;;;12.30;8.32;;;;;;;;;;5066188;28;20048;-84
2022/06/23 08:47:06;;;;;;;12.15;8.25;;;;;;;;;;5061429;28;20041;-83
2022/06/23 08:49:40;;;;;;;11.15;8.02;;;;;;;;;;5068627;28;20098;-82
2022/06/23 08:52:20;;;;;;;11.60;7.45;;;;;;;;;;5081976;28;20068;-84
2022/06/23 08:54:49;;;;;;;11.73;8.80;;;;;;;;;;5058203;28;20115;-84
2022/06/23 08:57:21;;;;;;;10.65;8.25;;;;;;;;;;5086741;28;20043;-84
2022/06/23 08:59:51;;;;;;;12.50;8.55;;;;;;;;;;5080219;28;20390;-82
2022/06/23 09:02:23;;;;;;;12.55;8.63;;;;;;;;;;5060939;28;20040;-84
2022/06/23 09:04:52;;;;;;;10.93;8.20;;;;;;;;;;5087143;28;20044;-82
2022/06/23 09:07:18;;;;;;;10.27;7.10;;;;;;;;;;5076773;28;20051;-82
2022/06/23 09:09:58;;;;;;;10.15;7.35;;;;;;;;;;5080517;28;20075;-81
2022/06/23 09:12:24;;;;;;;11.48;8.32;;;;;;;;;;5086429;28;20036;-83
2022/06/23 09:14:53;;;;;;;10.98;7.85;;;;;;;;;;5057788;28;20048;-82
2022/06/23 09:17:19;;;;;;;8.63;6.63;;;;;;;;;;5082996;28;20040;-83
2022/06/23 09:19:45;;;;;;;9.90;7.55;;;;;;;;;;5081969;28;20044;-81
2022/06/23 09:22:20;;;;;;;9.98;6.90;;;;;;;;;;5058258;28;20032;-81
2022/06/23 09:24:53;;;;;;;8.38;5.60;;;;;;;;;;5091775;28;20048;-83
2022/06/23 09:27:31;;;;;;;10.13;6.53;;;;;;;;;;5084877;28;20570;-83
2022/06/23 09:30:10;;;;;;;10.57;7.10;;;;;;;;;;5088298;28;20048;-81
2022/06/23 09:32:45;;;;;;;10.27;5.55;;;;;;;;;;5090049;28;20036;-82
2022/06/23 09:35:41;;;;;;;11.73;5.80;;;;;;;;;;5082703;28;20415;-83
2022/06/23 09:38:10;;;;;;;9.02;6.07;;;;;;;;;;5077111;28;20036;-84
2022/06/23 09:40:42;;;;;;;9.68;6.45;;;;;;;;;;5088698;28;20079;-87
2022/06/23 09:43:11;;;;;;;9.55;6.03;;;;;;;;;;5082809;28;20040;-84
2022/06/23 09:45:58;;;;;;;10.35;5.40;;;;;;;;;;5079529;28;20032;-83
2022/06/23 09:48:34;;;;;;;8.15;5.18;;;;;;;;;;5077581;28;20044;-83
2022/06/23 09:51:12;;;;;;;8.02;5.43;;;;;;;;;;5083651;28;20327;-82
2022/06/23 09:53:38;;;;;;;9.25;6.13;;;;;;;;;;5088468;28;20039;-83
2022/06/23 09:56:28;;;;;;;6.53;4.80;;;;;;;;;;5059236;28;20043;-86
2022/06/23 09:59:02;;;;;;;10.02;6.05;;;;;;;;;;5083231;28;20043;-83
2022/06/23 10:01:43;;;;;;;8.43;5.20;;;;;;;;;;5086449;28;20075;-84
2022/06/23 10:04:22;;;;;;;7.78;4.63;;;;;;;;;;5077771;28;20047;-82
2022/06/23 10:07:08;;;;;;;7.03;4.43;;;;;;;;;;5082342;28;20079;-84
2022/06/23 10:09:34;;;;;;;8.48;5.15;;;;;;;;;;5073331;28;20040;-83
2022/06/23 10:12:10;;;;;;;11.10;5.25;;;;;;;;;;5071606;28;20040;-84
2022/06/23 10:14:48;;;;;;;6.28;4.18;;;;;;;;;;5065751;28;20070;-82
2022/06/23 10:17:33;;;;;;;8.40;4.28;;;;;;;;;;5077419;28;20075;-84
2022/06/23 10:20:08;;;;;;;6.35;4.78;;;;;;;;;;5078764;28;20483;-83
2022/06/23 10:22:44;;;;;;;6.65;4.70;;;;;;;;;;5065340;28;20040;-83
2022/06/23 10:25:16;;;;;;;8.68;4.80;;;;;;;;;;5071493;28;20039;-85
2022/06/23 10:28:01;;;;;;;8.77;3.95;;;;;;;;;;5076267;28;20108;-85
2022/06/23 10:30:27;;;;;;;;;;;;;;;;;;5065686;28;20040;-83
2022/06/23 10:32:54;;;;;;;6.47;3.95;;;;;;;;;;5087341;28;20378;-83
2022/06/23 10:35:23;;;;;;;8.30;4.78;;;;;;;;;;5059602;28;20050;-84
2022/06/23 10:38:05;;;;;;;6.53;4.30;;;;;;;;;;5085965;28;20032;-84
2022/06/23 10:40:50;;;;;;;7.90;4.35;;;;;;;;;;5085116;28;20043;-81
2022/06/23 10:43:34;;;;;;;6.15;4.43;;;;;;;;;;5075972;28;20052;-83
2022/06/23 10:46:14;;;;;;;7.97;4.53;;;;;;;;;;5083035;28;20032;-83
2022/06/23 10:48:46;;;;;;;7.68;4.40;;;;;;;;;;5087446;28;20388;-86
2022/06/23 10:51:16;;;;;;;8.90;4.20;;;;;;;;;;5076265;28;20047;-85
2022/06/23 10:53:42;;;;;;;7.25;4.47;;;;;;;;;;5068321;28;20422;-84
2022/06/23 10:56:27;;;;;;;8.93;4.25;;;;;;;;;;5083884;28;20086;-85
2022/06/23 10:58:53;;;;;;;;;;;;;;;;;;5075870;28;20036;-84
2022/06/23 11:01:38;;;;;;;6.63;3.85;;;;;;;;;;5086638;28;20393;-83
2022/06/23 11:04:16;;;;;;;5.68;3.72;;;;;;;;;;5067486;28;20435;-83
2022/06/23 11:06:49;;;;;;;6.90;3.75;;;;;;;;;;5075466;28;20104;-83
2022/06/23 11:09:34;;;;;;;5.47;3.60;;;;;;;;;;5084968;28;20097;-83
2022/06/23 11:12:09;;;;;;;6.55;3.97;;;;;;;;;;5084894;28;20040;-85
2022/06/23 11:14:56;;;;;;;7.00;3.75;;;;;;;;;;5075111;28;20069;-85
2022/06/23 11:17:34;;;;;;;5.85;3.88;;;;;;;;;;5090410;28;20039;-85
2022/06/23 11:20:09;;;;;;;7.03;3.85;;;;;;;;;;5060926;28;20067;-86
2022/06/23 11:22:52;;;;;;;6.47;3.80;;;;;;;;;;5087995;28;20039;-84
2022/06/23 11:25:38;;;;;;;7.95;3.90;;;;;;;;;;5080451;28;20096;-84
2022/06/23 11:28:05;;;;;;;5.72;3.60;;;;;;;;;;5065045;28;20067;-82
2022/06/23 11:30:34;;;;;;;5.22;3.42;;;;;;;;;;5087760;28;20042;-82
2022/06/23 11:33:00;;;;;;;6.80;3.53;;;;;;;;;;5078887;28;20045;-84
2022/06/23 11:35:29;;;;;;;7.03;3.30;;;;;;;;;;5063419;28;20108;-84
2022/06/23 11:38:08;;;;;;;6.85;3.58;;;;;;;;;;5071123;28;20078;-82
2022/06/23 11:40:34;;;;;;;6.20;3.70;;;;;;;;;;5076139;28;20043;-87
2022/06/23 11:43:13;;;;;;;6.45;3.50;;;;;;;;;;5082602;28;20427;-86
2022/06/23 11:45:51;;;;;;;6.95;3.60;;;;;;;;;;5068994;28;20042;-85
2022/06/23 11:48:34;;;;;;;7.43;3.70;;;;;;;;;;5071288;28;20055;-84
2022/06/23 11:51:15;;;;;;;5.15;3.50;;;;;;;;;;5080749;28;20105;-86
2022/06/23 11:53:59;;;;;;;5.25;3.15;;;;;;;;;;5075165;28;20042;-88
2022/06/23 11:56:25;;;;;;;;;;;;;;;;;;5078057;28;20124;-86
2022/06/23 11:58:55;;;;;;;5.53;3.40;;;;;;;;;;5081386;28;20038;-82
2022/06/23 12:01:22;;;;;;;6.93;3.63;;;;;;;;;;5085216;28;20044;-85
2022/06/23 12:03:51;;;;;;;5.45;3.45;;;;;;;;;;5056265;28;20050;-83
2022/06/23 12:06:36;;;;;;;5.72;3.40;;;;;;;;;;5077429;28;20044;-86
2022/06/23 12:09:05;;;;;;;4.85;3.00;;;;;;;;;;5078237;28;20515;-87
2022/06/23 12:11:32;;;;;;;6.53;3.40;;;;;;;;;;5070296;28;20050;-84
2022/06/23 12:14:02;;;;;;;4.65;3.00;;;;;;;;;;5075579;28;20035;-87
2022/06/23 12:16:28;;;;;;;6.03;3.67;;;;;;;;;;5081499;28;20110;-84
2022/06/23 12:18:58;;;;;;;5.75;3.20;;;;;;;;;;5066458;28;20047;-85
2022/06/23 12:21:30;;;;;;;6.53;3.67;;;;;;;;;;5057466;28;20040;-85
2022/06/23 12:24:00;;;;;;;5.50;3.42;;;;;;;;;;5068750;28;20071;-85
2022/06/23 12:26:35;;;;;;;5.32;3.40;;;;;;;;;;5080806;28;20051;-85
2022/06/23 12:29:09;;;;;;;4.90;3.25;;;;;;;;;;5073616;28;20667;-84
2022/06/23 12:31:48;;;;;;;5.13;3.03;;;;;;;;;;5071372;28;20483;-84
2022/06/23 12:34:33;;;;;;;4.72;3.00;;;;;;;;;;5080445;28;20040;-84
2022/06/23 12:37:11;;;;;;;8.20;3.47;;;;;;;;;;5074217;28;20043;-84
2022/06/23 12:39:44;;;;;;;5.63;3.38;;;;;;;;;;5076114;28;20041;-84
2022/06/23 12:42:18;;;;;;;4.40;3.00;;;;;;;;;;5080589;28;20119;-86
2022/06/23 12:44:44;;;;;;;5.63;3.72;;;;;;;;;;5085784;28;20509;-85
2022/06/23 12:47:40;;;;;;;4.53;2.97;;;;;;;;;;5057638;28;20048;-84
2022/06/23 12:50:32;;;;;;;5.72;3.20;;;;;;;;;;5049927;28;20048;-85
2022/06/23 12:53:19;;;;;;;6.50;3.72;;;;;;;;;;5070870;28;20043;-83
2022/06/23 12:55:56;;;;;;;4.70;3.08;;;;;;;;;;5079684;28;20047;-85
2022/06/23 12:58:23;;;;;;;4.60;3.40;;;;;;;;;;5076391;28;20050;-84
2022/06/23 13:01:02;;;;;;;5.07;3.35;;;;;;;;;;5088530;28;20058;-86
2022/06/23 13:03:32;;;;;;;5.57;3.22;;;;;;;;;;5082994;28;20044;-85
2022/06/23 13:06:19;;;;;;;6.85;3.65;;;;;;;;;;5082129;28;20031;-86
2022/06/23 13:08:52;;;;;;;5.75;3.50;;;;;;;;;;5051927;28;20052;-86
2022/06/23 13:11:21;;;;;;;5.40;3.47;;;;;;;;;;5083002;28;20040;-88
2022/06/23 13:13:55;;;;;;;6.18;3.42;;;;;;;;;;5081813;28;20066;-85
2022/06/23 13:16:24;;;;;;;5.68;2.92;;;;;;;;;;5073981;28;20407;-83
2022/06/23 13:18:59;;;;;;;5.15;3.42;;;;;;;;;;5085878;28;20085;-83
2022/06/23 13:21:28;;;;;;;7.45;3.65;;;;;;;;;;5062856;28;20178;-87
2022/06/23 13:23:57;;;;;;;5.07;3.58;;;;;;;;;;5076015;28;20051;-84
2022/06/23 13:26:28;;;;;;;6.22;3.85;;;;;;;;;;5069413;28;20039;-84
2022/06/23 13:29:02;;;;;;;6.13;3.33;;;;;;;;;;5076190;28;20131;-82
2022/06/23 13:31:32;;;;;;;7.22;3.60;;;;;;;;;;5080834;28;20039;-86
2022/06/23 13:34:07;;;;;;;6.75;3.63;;;;;;;;;;5089652;28;20055;-86
2022/06/23 13:36:39;;;;;;;12.45;4.13;;;;;;;;;;5074927;28;20068;-84
2022/06/23 13:39:14;;;;;;;5.20;3.60;;;;;;;;;;5073646;28;20047;-84
2022/06/23 13:41:49;;;;;;;6.78;3.67;;;;;;;;;;5088330;28;20406;-85
2022/06/23 13:44:15;;;;;;;;;;;;;;;;;;5077968;28;20371;-84
2022/06/23 13:46:54;;;;;;;6.10;3.30;;;;;;;;;;5086313;28;19923;-85
2022/06/23 13:49:30;;;;;;;5.53;3.60;;;;;;;;;;5086291;28;20293;-85
2022/06/23 13:51:56;;;;;;;6.97;3.58;;;;;;;;;;5077021;28;20084;-83
2022/06/23 13:54:33;;;;;;;6.30;3.80;;;;;;;;;;5087981;28;20052;-85
2022/06/23 13:56:59;;;;;;;6.57;4.03;;;;;;;;;;5084391;28;20092;-84
2022/06/23 13:59:34;;;;;;;4.68;3.67;;;;;;;;;;5078669;28;20434;-87
2022/06/23 14:02:21;;;;;;;10.60;4.30;;;;;;;;;;5093128;28;20176;-87
2022/06/23 14:04:59;;;;;;;7.63;3.80;;;;;;;;;;5082586;28;20123;-85
2022/06/23 14:07:28;;;;;;;6.97;3.70;;;;;;;;;;5089061;28;20461;-84
2022/06/23 14:10:01;;;;;;;5.50;4.00;;;;;;;;;;5076673;28;20058;-85
2022/06/23 14:12:27;;;;;;;7.35;3.80;;;;;;;;;;5076319;28;20039;-86
2022/06/23 14:14:53;;;;;;;7.25;3.88;;;;;;;;;;5080730;28;20546;-87
2022/06/23 14:17:31;;;;;;;8.50;4.07;;;;;;;;;;5089423;28;20040;-86
2022/06/23 14:20:02;;;;;;;7.75;3.90;;;;;;;;;;5078622;28;20039;-86
2022/06/23 14:22:47;;;;;;;6.57;3.65;;;;;;;;;;5082544;28;20036;-83
2022/06/23 14:25:30;;;;;;;5.97;3.45;;;;;;;;;;5089397;28;20067;-83
2022/06/23 14:27:59;;;;;;;8.13;3.80;;;;;;;;;;5078608;28;20317;-84
2022/06/23 14:30:34;;;;;;;5.72;3.30;;;;;;;;;;5081771;28;20040;-84
2022/06/23 14:33:09;;;;;;;5.20;3.80;;;;;;;;;;5088877;28;20036;-85
2022/06/23 14:35:39;;;;;;;7.05;3.80;;;;;;;;;;5078323;28;20028;-86
2022/06/23 14:38:20;;;;;;;4.65;3.70;;;;;;;;;;5076523;28;20126;-85
2022/06/23 14:41:06;;;;;;;5.88;3.80;;;;;;;;;;5060142;28;20036;-84
2022/06/23 14:43:39;;;;;;;8.10;3.88;;;;;;;;;;5070725;28;20489;-85
2022/06/23 14:46:25;;;;;;;6.78;3.72;;;;;;;;;;5082491;28;20047;-86
2022/06/23 14:49:14;;;;;;;5.47;3.80;;;;;;;;;;5071836;28;20043;-87
2022/06/23 14:51:42;;;;;;;7.43;4.18;;;;;;;;;;5080090;28;20067;-85
2022/06/23 14:54:11;;;;;;;6.10;3.40;;;;;;;;;;5080913;28;20550;-84
2022/06/23 14:56:44;;;;;;;4.95;3.75;;;;;;;;;;5088798;28;20036;-84
2022/06/23 14:59:10;;;;;;;6.70;3.95;;;;;;;;;;5076942;28;20069;-84
2022/06/23 15:01:41;;;;;;;7.97;4.13;;;;;;;;;;5083170;28;20089;-86
2022/06/23 15:04:07;;;;;;;8.82;3.90;;;;;;;;;;5085118;28;20511;-83
2022/06/23 15:06:38;;;;;;;6.25;3.60;;;;;;;;;;5075360;28;20127;-85
2022/06/23 15:09:20;;;;;;;6.13;3.95;;;;;;;;;;5086734;28;20044;-84
2022/06/23 15:11:51;;;;;;;6.07;3.72;;;;;;;;;;5083220;28;20036;-83
2022/06/23 15:14:49;;;;;;;6.45;3.70;;;;;;;;;;5075846;28;20036;-84
2022/06/23 15:17:30;;;;;;;9.32;3.85;;;;;;;;;;5079694;28;20035;-86
2022/06/23 15:20:02;;;;;;;7.18;3.75;;;;;;;;;;5077796;28;20127;-83